Time;durP1;ratioP1;P1;durP2;ratioP2;P2;SDS_P1;SDS_P2;PMS_P1;PMS_P2;Temp;Humidity;BMP_temperature;BMP_pressure;BME280_temperature;BME280_humidity;BME280_pressure;Samples;Min_cycle;Max_cycle;Signal;HPM_P1;HPM_P2
2022/05/28 00:00:53;;;;;;;;;6.00;6.00;;;;;17.75;73.20;102099.56;5081527;28;45344;-88
2022/05/28 00:03:21;;;;;;;;;5.50;4.25;;;;;17.70;72.90;102084.53;5079858;28;45393;-88
2022/05/28 00:05:47;;;;;;;;;8.50;5.00;;;;;17.68;73.88;102087.09;5079821;28;45338;-87
2022/05/28 00:08:13;;;;;;;;;6.50;5.50;;;;;17.65;73.40;102086.97;5084325;28;45463;-88
2022/05/28 00:10:40;;;;;;;;;5.00;4.00;;;;;17.61;73.42;102088.59;5082578;28;45351;-87
2022/05/28 00:13:06;;;;;;;;;4.75;2.00;;;;;17.59;74.67;102086.78;5080973;28;45411;-88
2022/05/28 00:15:32;;;;;;;;;5.00;5.00;;;;;17.56;74.78;102091.88;5081008;28;45413;-88
2022/05/28 00:17:59;;;;;;;;;5.00;4.00;;;;;17.52;74.54;102083.03;5080562;28;45896;-88
2022/05/28 00:20:25;;;;;;;;;6.25;6.00;;;;;17.48;74.67;102078.50;5083994;27;45688;-86
2022/05/28 00:22:51;;;;;;;;;6.50;5.00;;;;;17.44;75.65;102081.88;5084789;28;45232;-86
2022/05/28 00:25:18;;;;;;;;;6.25;4.50;;;;;17.41;75.98;102087.84;5082494;28;45320;-88
2022/05/28 00:27:44;;;;;;;;;5.00;5.00;;;;;17.39;76.67;102080.78;5080217;28;46096;-87
2022/05/28 00:30:12;;;;;;;;;5.25;5.25;;;;;17.37;76.16;102077.22;5078641;27;45400;-87
2022/05/28 00:32:38;;;;;;;;;7.00;6.00;;;;;17.33;76.27;102079.72;5083369;28;45275;-87
2022/05/28 00:35:05;;;;;;;;;8.25;6.25;;;;;17.32;76.18;102074.44;5086411;28;45200;-88
2022/05/28 00:37:31;;;;;;;;;6.25;4.00;;;;;17.33;76.58;102076.22;5082225;27;46616;-87
2022/05/28 00:39:57;;;;;;;;;7.25;5.00;;;;;17.32;76.95;102077.06;5078730;28;45480;-87
2022/05/28 00:42:23;;;;;;;;;6.25;5.25;;;;;17.31;76.80;102075.25;5078191;28;45394;-87
2022/05/28 00:44:48;;;;;;;;;5.25;5.25;;;;;17.28;77.46;102072.53;5078078;28;45335;-87
2022/05/28 00:47:16;;;;;;;;;7.00;5.50;;;;;17.26;76.61;102072.47;5077984;27;46448;-86
2022/05/28 00:49:43;;;;;;;;;7.00;4.25;;;;;17.22;78.07;102075.84;5079163;28;45951;-87
2022/05/28 00:52:08;;;;;;;;;7.75;7.00;;;;;17.18;78.34;102069.56;5078213;27;45478;-86
2022/05/28 00:54:39;;;;;;;;;9.25;7.25;;;;;17.18;78.26;102069.56;5078339;27;45195;-87
2022/05/28 00:57:05;;;;;;;;;8.25;5.00;;;;;17.18;78.88;102066.06;5077735;28;45392;-87
2022/05/28 00:59:31;;;;;;;;;7.50;6.25;;;;;17.17;78.96;102069.53;5077793;28;45444;-87
2022/05/28 01:02:03;;;;;;;;;7.50;7.00;;;;;17.12;79.42;102063.19;5080498;28;45354;-87
2022/05/28 01:04:43;;;;;;;;;7.00;5.50;;;;;17.07;79.49;102062.16;5082520;28;45619;-87
2022/05/28 01:07:38;;;;;;;;;7.25;7.25;;;;;17.00;80.40;102069.78;5078328;28;47752;-87
2022/05/28 01:10:34;;;;;;;;;6.50;6.00;;;;;16.98;80.47;102071.44;5078182;28;45703;-87
2022/05/28 01:13:22;;;;;;;;;9.75;6.75;;;;;16.95;80.34;102065.19;5077449;28;45166;-87
2022/05/28 01:16:29;;;;;;;;;5.50;5.50;;;;;16.90;80.80;102066.69;5077760;27;45363;-87
2022/05/28 01:19:11;;;;;;;;;7.25;7.00;;;;;16.82;81.69;102058.53;5056927;28;46279;-86
2022/05/28 01:21:49;;;;;;;;;8.25;6.25;;;;;16.77;81.12;102060.09;5019590;28;1595930;-80
2022/05/28 01:24:20;;;;;;;;;6.00;5.00;;;;;16.75;81.27;102065.25;5078390;27;45351;-86
2022/05/28 01:26:57;;;;;;;;;7.25;7.00;;;;;16.73;81.33;102055.56;5079986;28;45617;-83
2022/05/28 01:29:28;;;;;;;;;5.75;5.75;;;;;16.73;82.02;102058.19;5079325;27;45266;-81
2022/05/28 01:31:55;;;;;;;;;7.50;5.75;;;;;16.71;82.14;102059.03;5081367;28;45355;-83
2022/05/28 01:34:22;;;;;;;;;8.75;7.50;;;;;16.70;82.70;102057.22;5078950;28;45232;-77
2022/05/28 01:36:49;;;;;;;;;8.25;6.50;;;;;16.66;82.24;102046.59;5077938;28;45462;-77
2022/05/28 01:39:17;;;;;;;;;7.50;6.75;;;;;16.66;82.65;102043.97;5077657;27;46298;-82
2022/05/28 01:41:48;;;;;;;;;8.50;5.00;;;;;16.66;82.87;102047.50;5076216;27;45918;-85
2022/05/28 01:44:18;;;;;;;;;8.50;7.50;;;;;16.68;83.37;102052.78;5078052;28;45424;-86
2022/05/28 01:46:46;;;;;;;;;6.00;6.00;;;;;16.70;83.37;102046.78;5059567;28;45648;-86
2022/05/28 01:49:15;;;;;;;;;7.00;6.25;;;;;16.67;83.58;102044.06;5077604;28;45453;-87
2022/05/28 01:51:47;;;;;;;;;11.00;6.75;;;;;16.65;83.13;102040.47;5076747;28;45812;-87
2022/05/28 01:54:16;;;;;;;;;6.25;6.00;;;;;16.67;83.59;102048.38;5078054;28;45288;-87
2022/05/28 01:56:45;;;;;;;;;8.00;7.75;;;;;16.68;83.86;102043.19;5078001;28;45264;-85
2022/05/28 01:59:14;;;;;;;;;8.00;6.00;;;;;16.63;84.17;102039.53;5067286;28;47091;-87
2022/05/28 02:01:41;;;;;;;;;7.75;7.00;;;;;16.59;84.95;102036.72;5078466;28;45380;-85
2022/05/28 02:04:07;;;;;;;;;6.25;5.75;;;;;16.56;85.53;102035.78;5078254;28;45406;-78
2022/05/28 02:06:35;;;;;;;;;9.00;8.00;;;;;16.54;84.76;102036.56;5078180;28;45419;-83
2022/05/28 02:09:05;;;;;;;;;6.00;6.00;;;;;16.51;85.72;102028.56;5077697;27;45259;-87
2022/05/28 02:11:56;;;;;;;;;5.00;5.00;;;;;16.51;86.17;102034.72;5059028;28;45806;-86
2022/05/28 02:15:07;;;;;;;;;7.75;5.50;;;;;16.46;86.48;102028.38;5077478;28;45756;-86
2022/05/28 02:17:39;;;;;;;;;8.50;6.00;;;;;16.42;86.40;102030.81;5053935;27;45369;-86
2022/05/28 02:20:26;;;;;;;;;9.75;7.50;;;;;16.40;87.45;102029.03;5077502;28;45343;-87
2022/05/28 02:23:04;;;;;;;;;7.00;7.00;;;;;16.38;87.46;102028.06;5076907;28;45879;-86
2022/05/28 02:25:45;;;;;;;;;5.25;5.00;;;;;16.32;88.43;102021.69;5085454;27;45180;-87
2022/05/28 02:28:13;;;;;;;;;7.00;7.00;;;;;16.30;87.88;102019.03;5085152;28;45483;-87
2022/05/28 02:30:50;;;;;;;;;10.50;7.00;;;;;16.27;87.41;102021.53;5080242;28;45991;-85
2022/05/28 02:33:17;;;;;;;;;8.25;8.25;;;;;16.29;87.90;102021.59;5059426;28;45713;-88
2022/05/28 02:35:44;;;;;;;;;7.75;7.75;;;;;16.28;88.35;102012.84;5078188;28;45300;-86
2022/05/28 02:38:14;;;;;;;;;6.75;6.75;;;;;16.24;89.05;102006.63;5079043;28;45459;-85
2022/05/28 02:40:40;;;;;;;;;11.00;8.50;;;;;16.23;88.98;102006.56;5077518;27;45212;-86
2022/05/28 02:43:06;;;;;;;;;5.00;5.00;;;;;16.20;89.06;102012.53;5078290;27;45236;-87
2022/05/28 02:45:32;;;;;;;;;9.00;8.25;;;;;16.21;89.63;102005.59;5078114;28;45402;-87
2022/05/28 02:47:58;;;;;;;;;7.50;7.25;;;;;16.18;89.46;102009.00;5077196;28;45374;-87
2022/05/28 02:50:27;;;;;;;;;9.25;8.00;;;;;16.17;89.20;102004.59;5058832;28;47840;-86
2022/05/28 02:52:53;;;;;;;;;6.75;6.75;;;;;16.18;89.74;102014.22;5076400;27;45778;-86
2022/05/28 02:55:19;;;;;;;;;6.75;6.25;;;;;16.19;89.32;102007.25;5081667;28;45194;-87
2022/05/28 02:57:45;;;;;;;;;9.50;7.75;;;;;16.16;89.87;102004.50;5077275;28;45197;-87
2022/05/28 03:00:13;;;;;;;;;7.75;7.75;;;;;16.12;90.08;102002.63;5077894;27;45669;-86
2022/05/28 03:02:38;;;;;;;;;9.75;8.00;;;;;16.12;89.86;102000.00;5076547;28;45878;-86
2022/05/28 03:05:04;;;;;;;;;8.75;8.25;;;;;16.08;90.50;101999.00;5077898;28;45448;-87
2022/05/28 03:07:30;;;;;;;;;9.75;7.00;;;;;16.05;90.49;101996.25;5085082;28;45553;-85
2022/05/28 03:09:56;;;;;;;;;10.75;7.75;;;;;16.07;90.94;102000.69;5060291;28;46700;-87
2022/05/28 03:12:21;;;;;;;;;7.50;6.25;;;;;16.07;90.87;102002.44;5058830;28;45554;-87
2022/05/28 03:14:47;;;;;;;;;6.50;6.00;;;;;16.05;91.27;102004.09;5058191;28;45323;-86
2022/05/28 03:17:12;;;;;;;;;6.25;6.25;;;;;16.04;91.70;102004.91;5076967;28;45326;-86
2022/05/28 03:19:38;;;;;;;;;10.50;8.25;;;;;16.03;91.64;102005.72;5076202;28;45908;-86
2022/05/28 03:22:04;;;;;;;;;9.50;7.50;;;;;16.00;92.01;101997.75;5080669;27;45374;-87
2022/05/28 03:24:30;;;;;;;;;9.25;9.00;;;;;16.00;92.54;102001.28;5082788;28;45271;-86
2022/05/28 03:26:57;;;;;;;;;11.00;7.00;;;;;16.01;92.26;102000.47;5079417;28;45315;-87
2022/05/28 03:29:24;;;;;;;;;11.50;8.25;;;;;16.03;92.21;102004.03;5082032;28;46062;-88
2022/05/28 03:31:50;;;;;;;;;8.75;8.00;;;;;16.03;92.19;101998.81;5081077;28;45846;-87
2022/05/28 03:34:16;;;;;;;;;10.50;8.00;;;;;16.02;91.01;102004.84;5078641;27;45462;-87
2022/05/28 03:36:42;;;;;;;;;5.00;3.50;;;;;15.99;91.64;102007.34;5077289;27;45578;-86
2022/05/28 03:39:08;;;;;;;;;12.75;10.25;;;;;15.98;93.60;102009.88;5076643;28;45961;-87
2022/05/28 03:41:34;;;;;;;;;9.75;8.50;;;;;15.92;93.31;102011.41;5058938;28;45312;-87
2022/05/28 03:43:59;;;;;;;;;8.00;6.25;;;;;15.85;93.48;102005.84;5077221;27;45280;-78
2022/05/28 03:46:30;;;;;;;;;10.00;8.50;;;;;15.77;93.64;102002.88;5075134;28;45573;-77
2022/05/28 03:49:03;;;;;;;;;10.00;8.25;;;;;15.70;95.15;102008.66;5076173;28;46121;-84
2022/05/28 03:51:30;;;;;;;;;12.25;8.75;;;;;15.64;96.01;102011.91;5079579;28;45329;-84
2022/05/28 03:53:55;;;;;;;;;7.00;7.00;;;;;15.60;95.39;102018.72;5076741;28;45405;-81
2022/05/28 03:56:22;;;;;;;;;8.50;8.00;;;;;15.55;96.51;102021.94;5076390;28;45457;-79
2022/05/28 03:58:50;;;;;;;;;8.75;8.25;;;;;15.49;97.67;102017.34;5075781;28;45389;-81
2022/05/28 04:01:16;;;;;;;;;9.00;8.25;;;;;15.45;97.98;102028.47;5057708;28;45296;-82
2022/05/28 04:03:42;;;;;;;;;10.00;10.00;;;;;15.38;99.25;102022.13;5075698;28;45188;-85
2022/05/28 04:06:09;;;;;;;;;8.50;8.25;;;;;15.36;97.76;102034.19;5057988;28;45286;-82
2022/05/28 04:08:35;;;;;;;;;10.75;10.00;;;;;15.32;99.77;102033.16;5076146;28;46215;-80
2022/05/28 04:11:01;;;;;;;;;11.00;7.75;;;;;15.28;100.00;102026.00;5075762;28;45378;-86
2022/05/28 04:13:26;;;;;;;;;8.50;7.50;;;;;15.29;99.93;102032.13;5075977;28;45340;-86
2022/05/28 04:15:52;;;;;;;;;11.00;9.75;;;;;15.27;99.17;102039.00;5077079;27;45543;-85
2022/05/28 04:18:18;;;;;;;;;10.75;9.25;;;;;15.23;100.00;102035.34;5081690;27;45303;-82
2022/05/28 04:20:44;;;;;;;;;8.50;8.50;;;;;15.23;100.00;102037.94;5083624;28;45359;-84
2022/05/28 04:23:10;;;;;;;;;7.75;7.75;;;;;15.22;100.00;102032.66;5080767;27;45225;-87
2022/05/28 04:25:35;;;;;;;;;10.25;8.25;;;;;15.17;100.00;102032.47;5079660;28;45228;-85
2022/05/28 04:28:01;;;;;;;;;10.25;10.25;;;;;15.13;100.00;102036.66;5079304;28;45303;-84
2022/05/28 04:30:27;;;;;;;;;10.00;9.25;;;;;15.10;100.00;102033.91;5062450;28;45359;-86
2022/05/28 04:32:52;;;;;;;;;9.25;7.50;;;;;15.13;100.00;102028.81;5083115;28;45253;-88
2022/05/28 04:35:18;;;;;;;;;9.75;8.50;;;;;15.15;100.00;102036.72;5082274;28;45560;-87
2022/05/28 04:37:43;;;;;;;;;9.00;8.00;;;;;15.18;100.00;102029.03;5080602;28;45451;-87
2022/05/28 04:40:10;;;;;;;;;8.75;6.75;;;;;15.21;100.00;102034.41;5081039;27;45366;-88
2022/05/28 04:42:36;;;;;;;;;11.00;10.00;;;;;15.25;100.00;102032.81;5081989;28;45437;-87
2022/05/28 04:45:03;;;;;;;;;11.00;10.25;;;;;15.28;100.00;102039.06;5081087;28;45305;-88
2022/05/28 04:47:29;;;;;;;;;10.00;9.25;;;;;15.28;100.00;102039.06;5085876;28;46054;-87
2022/05/28 04:49:54;;;;;;;;;11.50;8.50;;;;;15.30;100.00;102039.13;5086906;28;45217;-87
2022/05/28 04:52:21;;;;;;;;;13.25;9.25;;;;;15.33;100.00;102036.66;5080762;27;45375;-86
2022/05/28 04:54:47;;;;;;;;;9.25;9.25;;;;;15.33;100.00;102044.47;5080079;27;45216;-86
2022/05/28 04:57:12;;;;;;;;;9.50;8.00;;;;;15.39;100.00;102043.88;5079707;28;45363;-87
2022/05/28 04:59:38;;;;;;;;;11.25;9.50;;;;;15.40;99.53;102041.31;5078470;28;45466;-87
2022/05/28 05:02:06;;;;;;;;;13.75;8.25;;;;;15.44;98.82;102048.47;5078721;28;45313;-87
2022/05/28 05:04:31;;;;;;;;;10.25;9.50;;;;;15.44;99.39;102043.25;5078720;28;45601;-87
2022/05/28 05:06:57;;;;;;;;;9.25;7.50;;;;;15.43;99.41;102046.69;5078350;28;45906;-84
2022/05/28 05:09:23;;;;;;;;;9.00;7.75;;;;;15.44;99.74;102045.88;5059998;28;45852;-86
2022/05/28 05:11:49;;;;;;;;;8.75;8.25;;;;;15.44;99.10;102045.88;5077921;28;45335;-87
2022/05/28 05:14:14;;;;;;;;;9.50;9.00;;;;;15.45;99.39;102046.75;5082106;27;45232;-85
2022/05/28 05:16:40;;;;;;;;;8.75;8.75;;;;;15.45;99.03;102044.13;5084366;27;45463;-86
2022/05/28 05:19:06;;;;;;;;;12.50;7.50;;;;;15.50;99.31;102044.34;5078326;28;45359;-86
2022/05/28 05:21:32;;;;;;;;;9.50;8.50;;;;;15.52;98.83;102040.06;5078331;28;45312;-86
2022/05/28 05:23:57;;;;;;;;;9.25;9.25;;;;;15.51;98.54;102040.91;5077973;28;45315;-87
2022/05/28 05:26:23;;;;;;;;;8.50;8.50;;;;;15.49;98.50;102040.84;5076613;28;45861;-87
2022/05/28 05:28:50;;;;;;;;;9.75;9.00;;;;;15.48;99.27;102054.72;5077923;28;45510;-83
2022/05/28 05:31:16;;;;;;;;;8.75;8.75;;;;;15.50;98.91;102049.56;5077253;27;45412;-84
2022/05/28 05:33:41;;;;;;;;;9.00;7.75;;;;;15.49;99.41;102043.44;5077291;28;45577;-82
2022/05/28 05:36:08;;;;;;;;;11.25;10.50;;;;;15.49;99.63;102046.06;5077267;28;45797;-81
2022/05/28 05:38:34;;;;;;;;;12.75;10.50;;;;;15.48;99.88;102041.66;5078018;28;45836;-84
2022/05/28 05:41:00;;;;;;;;;11.25;11.25;;;;;15.45;99.95;102033.69;5078458;28;45752;-82
2022/05/28 05:43:25;;;;;;;;;12.25;11.25;;;;;15.44;100.00;102045.88;5081457;28;45243;-82
2022/05/28 05:46:02;;;;;;;;;12.00;11.00;;;;;15.47;100.00;102045.09;5082831;27;45434;-82
2022/05/28 05:48:29;;;;;;;;;13.50;11.50;;;;;15.45;100.00;102042.44;5077819;27;45407;-82
2022/05/28 05:50:55;;;;;;;;;9.50;8.50;;;;;15.48;100.00;102039.06;5078489;28;45369;-83
2022/05/28 05:53:20;;;;;;;;;13.00;11.50;;;;;15.47;100.00;102042.50;5077585;28;45400;-82
2022/05/28 05:55:47;;;;;;;;;15.75;11.50;;;;;15.52;100.00;102050.53;5077347;27;46396;-82
2022/05/28 05:58:13;;;;;;;;;10.75;9.00;;;;;15.53;100.00;102048.00;5077255;28;45679;-84
2022/05/28 06:00:39;;;;;;;;;8.75;8.75;;;;;15.58;100.00;102051.69;5080893;28;45491;-85
2022/05/28 06:03:06;;;;;;;;;11.50;9.75;;;;;15.60;100.00;102054.38;5082209;27;45451;-80
2022/05/28 06:05:32;;;;;;;;;12.75;12.75;;;;;15.61;100.00;102053.53;5077581;27;46145;-85
2022/05/28 06:07:58;;;;;;;;;13.25;10.75;;;;;15.61;100.00;102056.16;5078235;28;45246;-80
2022/05/28 06:10:24;;;;;;;;;11.25;9.50;;;;;15.63;100.00;102059.72;5083277;27;45330;-85
2022/05/28 06:12:50;;;;;;;;;10.75;8.50;;;;;15.66;100.00;102054.66;5086454;28;45338;-89
2022/05/28 06:15:16;;;;;;;;;10.25;9.75;;;;;15.70;100.00;102055.66;5084080;27;45397;-88
2022/05/28 06:17:41;;;;;;;;;11.00;9.50;;;;;15.69;99.09;102052.19;5080117;28;45427;-82
2022/05/28 06:20:12;;;;;;;;;11.50;10.25;;;;;15.71;100.00;102057.44;5082729;27;45342;-82
2022/05/28 06:22:38;;;;;;;;;11.75;9.00;;;;;15.73;99.72;102050.59;5060672;28;45365;-82
2022/05/28 06:25:04;;;;;;;;;12.25;11.00;;;;;15.69;99.86;102061.72;5076885;27;45379;-87
2022/05/28 06:27:32;;;;;;;;;12.75;10.00;;;;;15.69;99.95;102053.88;5080534;28;46049;-87
2022/05/28 06:29:57;;;;;;;;;10.75;8.50;;;;;15.67;100.00;102051.22;5085980;27;45403;-87
2022/05/28 06:32:23;;;;;;;;;12.50;10.50;;;;;15.69;100.00;102053.88;5078437;27;45395;-86
2022/05/28 06:34:49;;;;;;;;;9.25;9.25;;;;;15.72;100.00;102057.50;5070101;28;45529;-88
2022/05/28 06:37:15;;;;;;;;;12.50;10.75;;;;;15.73;100.00;102058.41;5080997;28;45345;-84
2022/05/28 06:39:41;;;;;;;;;15.75;12.50;;;;;15.75;100.00;102049.81;5082277;27;45268;-80
2022/05/28 06:42:08;;;;;;;;;12.50;11.25;;;;;15.78;100.00;102051.66;5081568;28;45162;-81
2022/05/28 06:44:34;;;;;;;;;13.25;11.50;;;;;15.79;100.00;102051.75;5077371;28;45458;-86
2022/05/28 06:46:59;;;;;;;;;14.50;13.00;;;;;15.82;100.00;102048.38;5079464;27;45378;-85
